Time;durP1;ratioP1;P1;durP2;ratioP2;P2;SDS_P1;SDS_P2;PMS_P1;PMS_P2;Temp;Humidity;BMP_temperature;BMP_pressure;BME280_temperature;BME280_humidity;BME280_pressure;Samples;Min_cycle;Max_cycle;Signal;HPM_P1;HPM_P2
2022/08/21 00:02:14;;;;;;;;;;;;;;;21.79;75.52;98749.90;1663373;84;21097;-70
2022/08/21 00:04:40;;;;;;;;;;;;;;;21.86;75.48;98755.11;1671471;84;20088;-70
2022/08/21 00:07:07;;;;;;;;;;;;;;;21.91;75.26;98751.91;1696009;83;20193;-70
2022/08/21 00:09:33;;;;;;;;;;;;;;;21.96;75.24;98756.52;1694742;83;20425;-70
2022/08/21 00:11:59;;;;;;;;;;;;;;;22.02;75.06;98758.20;1696108;83;20119;-70
2022/08/21 00:14:25;;;;;;;;;;;;;;;22.03;74.72;98761.98;1696023;83;21167;-70
2022/08/21 00:16:51;;;;;;;;;;;;;;;22.01;74.56;98753.84;1695985;83;20095;-69
2022/08/21 00:19:18;;;;;;;;;;;;;;;22.00;74.51;98760.36;1695210;83;20170;-69
2022/08/21 00:21:44;;;;;;;;;;;;;;;21.96;74.41;98760.05;1696038;83;20850;-69
2022/08/21 00:24:10;;;;;;;;;;;;;;;21.93;74.54;98766.52;1696220;83;20144;-70
2022/08/21 00:26:37;;;;;;;;;;;;;;;21.87;74.61;98760.81;1693990;83;21170;-71
2022/08/21 00:29:03;;;;;;;;;;;;;;;21.84;74.77;98762.65;1691493;83;20100;-69
2022/08/21 00:31:30;;;;;;;;;;;;;;;21.78;74.84;98765.85;1693481;83;20075;-69
2022/08/21 00:33:56;;;;;;;;;;;;;;;21.77;74.96;98763.42;1693521;83;20149;-69
2022/08/21 00:36:22;;;;;;;;;;;;;;;21.78;75.00;98763.14;1692113;83;20092;-68
2022/08/21 00:38:49;;;;;;;;;;;;;;;21.76;74.96;98757.72;1693343;83;22126;-68
2022/08/21 00:41:15;;;;;;;;;;;;;;;21.75;74.97;98758.77;1690742;83;20426;-68
2022/08/21 00:43:41;;;;;;;;;;;;;;;21.73;75.09;98762.28;1693416;83;20124;-68
2022/08/21 00:46:08;;;;;;;;;;;;;;;21.74;75.01;98755.28;1693325;83;20151;-68
2022/08/21 00:48:35;;;;;;;;;;;;;;;21.75;74.98;98756.07;1693599;83;20147;-68
2022/08/21 00:51:08;;;;;;;;;;;;;;;21.75;74.99;98753.36;1691718;83;21116;-68
2022/08/21 00:53:39;;;;;;;;;;;;;;;21.75;74.89;98756.07;1692488;83;20409;-68
2022/08/21 00:56:06;;;;;;;;;;;;;;;21.71;74.89;98744.97;1690883;83;20422;-68
2022/08/21 00:58:35;;;;;;;;;;;;;;;21.69;74.89;98748.44;1658870;85;20097;-68
2022/08/21 01:01:03;;;;;;;;;;;;;;;21.67;74.94;98749.25;1665201;85;20174;-70
2022/08/21 01:03:29;;;;;;;;;;;;;;;21.67;74.99;98741.66;1674081;84;21170;-69
2022/08/21 01:05:56;;;;;;;;;;;;;;;21.66;74.96;98739.52;1685829;85;20099;-70
2022/08/21 01:08:23;;;;;;;;;;;;;;;21.66;74.96;98742.75;1686004;85;20088;-70
2022/08/21 01:10:49;;;;;;;;;;;;;;;21.64;74.95;98740.28;1685799;85;20119;-69
2022/08/21 01:13:16;;;;;;;;;;;;;;;21.64;75.00;98739.50;1662129;85;20438;-70
2022/08/21 01:15:44;;;;;;;;;;;;;;;21.64;74.95;98745.70;1685515;85;21253;-70
2022/08/21 01:18:11;;;;;;;;;;;;;;;21.62;74.96;98741.09;1686040;84;20087;-69
2022/08/21 01:20:39;;;;;;;;;;;;;;;21.63;74.91;98737.33;1686005;84;20123;-70
2022/08/21 01:23:05;;;;;;;;;;;;;;;21.64;74.91;98741.64;1662204;85;20099;-70
2022/08/21 01:25:32;;;;;;;;;;;;;;;21.64;74.83;98740.85;1687735;83;20075;-70
2022/08/21 01:27:59;;;;;;;;;;;;;;;21.58;74.82;98734.58;1699079;84;21142;-70
2022/08/21 01:30:26;;;;;;;;;;;;;;;21.56;75.02;98734.56;1698907;84;20086;-70
2022/08/21 01:32:53;;;;;;;;;;;;;;;21.59;74.98;98734.84;1698111;84;20115;-70
2022/08/21 01:35:19;;;;;;;;;;;;;;;21.63;74.87;98733.80;1698438;83;20287;-70
2022/08/21 01:37:46;;;;;;;;;;;;;;;21.66;74.75;98731.39;1699000;84;20075;-70
2022/08/21 01:40:13;;;;;;;;;;;;;;;21.73;74.65;98731.16;1699082;84;21051;-70
2022/08/21 01:42:40;;;;;;;;;;;;;;;21.76;74.50;98726.58;1698870;84;20119;-69
2022/08/21 01:45:07;;;;;;;;;;;;;;;21.75;74.39;98722.23;1696990;84;20453;-69
2022/08/21 01:47:33;;;;;;;;;;;;;;;21.75;74.25;98721.70;1698833;84;20075;-70
2022/08/21 01:49:59;;;;;;;;;;;;;;;21.75;74.15;98727.11;1698815;84;20145;-70
2022/08/21 01:52:25;;;;;;;;;;;;;;;21.72;74.19;98726.28;1699031;84;21988;-70
2022/08/21 01:54:52;;;;;;;;;;;;;;;21.71;74.27;98720.60;1697695;84;20099;-69
2022/08/21 01:57:18;;;;;;;;;;;;;;;21.70;74.22;98724.38;1698883;83;20224;-71
2022/08/21 01:59:44;;;;;;;;;;;;;;;21.68;74.16;98720.30;1698944;84;20139;-70
2022/08/21 02:02:11;;;;;;;;;;;;;;;21.66;74.22;98712.45;1698483;84;20123;-70
2022/08/21 02:04:37;;;;;;;;;;;;;;;21.67;74.29;98714.59;1697612;84;21122;-71
2022/08/21 02:07:04;;;;;;;;;;;;;;;21.67;74.27;98714.06;1693845;84;20178;-70
2022/08/21 02:09:31;;;;;;;;;;;;;;;21.68;74.24;98709.47;1698789;84;20091;-71
2022/08/21 02:11:58;;;;;;;;;;;;;;;21.68;74.22;98714.88;1698899;84;20122;-71
2022/08/21 02:14:24;;;;;;;;;;;;;;;21.68;74.23;98704.87;1698190;84;20108;-70
2022/08/21 02:16:51;;;;;;;;;;;;;;;21.68;74.16;98708.94;1698766;84;21150;-70
2022/08/21 02:19:18;;;;;;;;;;;;;;;21.67;74.17;98710.00;1698761;84;20127;-70
2022/08/21 02:21:44;;;;;;;;;;;;;;;21.67;74.15;98707.83;1698914;84;20103;-70
2022/08/21 02:24:10;;;;;;;;;;;;;;;21.64;74.20;98709.16;1698793;84;20616;-69
2022/08/21 02:26:37;;;;;;;;;;;;;;;21.64;74.28;98711.08;1694823;84;20147;-70
2022/08/21 02:29:04;;;;;;;;;;;;;;;21.65;74.27;98712.69;1695775;84;22056;-71
2022/08/21 02:31:31;;;;;;;;;;;;;;;21.65;74.26;98713.52;1695847;84;20462;-70
2022/08/21 02:33:57;;;;;;;;;;;;;;;21.63;74.25;98709.44;1695830;84;20436;-70
2022/08/21 02:36:24;;;;;;;;;;;;;;;21.62;74.31;98705.09;1695083;84;20140;-70
2022/08/21 02:38:50;;;;;;;;;;;;;;;21.62;74.31;98707.80;1695960;84;20123;-69
2022/08/21 02:41:18;;;;;;;;;;;;;;;21.61;74.29;98711.59;1695426;84;21161;-71
2022/08/21 02:43:44;;;;;;;;;;;;;;;21.60;74.34;98713.48;1694641;83;20112;-71
2022/08/21 02:46:13;;;;;;;;;;;;;;;21.61;74.47;98714.30;1694725;84;20091;-72
2022/08/21 02:48:40;;;;;;;;;;;;;;;21.64;74.60;98715.92;1695997;83;20121;-71
2022/08/21 02:51:10;;;;;;;;;;;;;;;21.71;74.59;98713.02;1695891;84;20121;-70
2022/08/21 02:53:37;;;;;;;;;;;;;;;21.76;74.55;98718.46;1695768;84;20815;-71
2022/08/21 02:56:05;;;;;;;;;;;;;;;21.78;74.38;98721.19;1694081;84;20436;-71
2022/08/21 02:58:34;;;;;;;;;;;;;;;21.77;74.31;98720.11;1690542;83;20385;-71
2022/08/21 03:01:01;;;;;;;;;;;;;;;21.73;74.40;98718.98;1695882;84;20076;-70
2022/08/21 03:03:27;;;;;;;;;;;;;;;21.69;74.53;98717.31;1695843;83;20155;-71
2022/08/21 03:05:54;;;;;;;;;;;;;;;21.67;74.68;98718.13;1694798;84;21155;-72
2022/08/21 03:08:21;;;;;;;;;;;;;;;21.65;74.86;98714.05;1695745;84;20087;-69
2022/08/21 03:10:49;;;;;;;;;;;;;;;21.62;74.99;98718.09;1695703;83;20240;-69
2022/08/21 03:13:16;;;;;;;;;;;;;;;21.59;75.18;98717.25;1695813;84;20123;-70
2022/08/21 03:15:42;;;;;;;;;;;;;;;21.53;75.37;98712.33;1695051;84;20127;-70
2022/08/21 03:18:09;;;;;;;;;;;;;;;21.51;75.58;98710.95;1695754;84;21151;-70
2022/08/21 03:20:37;;;;;;;;;;;;;;;21.48;75.73;98719.63;1695725;84;20184;-71
2022/08/21 03:23:03;;;;;;;;;;;;;;;21.43;75.94;98710.11;1695046;84;20099;-71
2022/08/21 03:25:33;;;;;;;;;;;;;;;21.37;76.12;98710.60;1694895;84;20524;-70
2022/08/21 03:28:01;;;;;;;;;;;;;;;21.32;76.38;98717.86;1688115;84;20421;-69
2022/08/21 03:30:27;;;;;;;;;;;;;;;21.28;76.64;98727.55;1685537;85;21156;-69
2022/08/21 03:32:53;;;;;;;;;;;;;;;21.26;76.80;98724.28;1685777;84;20087;-69
2022/08/21 03:35:19;;;;;;;;;;;;;;;21.26;76.96;98725.64;1685099;85;20116;-70
2022/08/21 03:37:46;;;;;;;;;;;;;;;21.28;77.05;98722.13;1685901;85;20634;-69
2022/08/21 03:40:14;;;;;;;;;;;;;;;21.25;77.08;98723.46;1686163;84;20470;-69
2022/08/21 03:42:41;;;;;;;;;;;;;;;21.24;77.13;98727.79;1685990;85;21945;-68
2022/08/21 03:45:08;;;;;;;;;;;;;;;21.22;77.28;98733.44;1684947;85;20140;-69
2022/08/21 03:47:36;;;;;;;;;;;;;;;21.22;77.32;98732.64;1685309;84;20163;-68
2022/08/21 03:50:04;;;;;;;;;;;;;;;21.21;77.35;98731.83;1685903;84;20080;-68
2022/08/21 03:52:31;;;;;;;;;;;;;;;21.18;77.36;98731.51;1685857;85;20087;-68
2022/08/21 03:54:57;;;;;;;;;;;;;;;21.15;77.52;98728.78;1683801;85;21148;-68
2022/08/21 03:57:23;;;;;;;;;;;;;;;21.15;77.76;98722.55;1685780;84;20120;-68
2022/08/21 03:59:50;;;;;;;;;;;;;;;21.19;77.72;98725.86;1685819;85;20104;-67
2022/08/21 04:02:17;;;;;;;;;;;;;;;21.20;77.62;98724.77;1685846;85;21242;-68
2022/08/21 04:04:43;;;;;;;;;;;;;;;21.21;77.55;98727.77;1685103;84;20434;-68
2022/08/21 04:07:09;;;;;;;;;;;;;;;21.22;77.51;98725.89;1685618;85;21108;-68
2022/08/21 04:09:37;;;;;;;;;;;;;;;21.22;77.49;98732.09;1685779;84;20468;-68
2022/08/21 04:12:04;;;;;;;;;;;;;;;21.23;77.42;98731.55;1686057;85;20430;-68
2022/08/21 04:14:30;;;;;;;;;;;;;;;21.24;77.42;98727.26;1685829;85;20099;-68
2022/08/21 04:16:57;;;;;;;;;;;;;;;21.24;77.34;98724.55;1684815;84;20084;-68
2022/08/21 04:19:23;;;;;;;;;;;;;;;21.25;77.29;98726.17;1666488;85;21188;-70
2022/08/21 04:21:50;;;;;;;;;;;;;;;21.28;77.30;98719.42;1685000;85;20221;-69
2022/08/21 04:24:16;;;;;;;;;;;;;;;21.31;77.20;98725.15;1685418;85;20075;-69
2022/08/21 04:26:43;;;;;;;;;;;;;;;21.37;77.10;98717.90;1684138;84;20152;-69
2022/08/21 04:29:10;;;;;;;;;;;;;;;21.38;76.86;98715.45;1685690;84;20103;-69
2022/08/21 04:31:36;;;;;;;;;;;;;;;21.38;76.72;98720.86;1685853;85;21764;-69
2022/08/21 04:34:04;;;;;;;;;;;;;;;21.36;76.79;98713.55;1685760;85;20445;-69
2022/08/21 04:36:32;;;;;;;;;;;;;;;21.40;76.76;98716.03;1684986;85;20088;-70
2022/08/21 04:38:58;;;;;;;;;;;;;;;21.42;76.67;98712.00;1685798;84;20193;-70
2022/08/21 04:41:25;;;;;;;;;;;;;;;21.46;76.65;98709.03;1685863;85;20087;-69
2022/08/21 04:43:52;;;;;;;;;;;;;;;21.53;76.47;98708.83;1685772;85;21457;-69
2022/08/21 04:46:18;;;;;;;;;;;;;;;21.59;76.33;98709.12;1683739;84;20480;-69
2022/08/21 04:48:45;;;;;;;;;;;;;;;21.66;76.24;98709.74;1684564;84;20124;-69
2022/08/21 04:51:29;;;;;;;;;;;;;;;21.77;75.95;98705.22;1685821;85;20648;-68
2022/08/21 04:53:59;;;;;;;;;;;;;;;21.87;75.45;98709.37;1685846;84;20076;-68
2022/08/21 04:56:28;;;;;;;;;;;;;;;21.90;75.09;98708.85;1684979;84;21235;-69
2022/08/21 04:58:55;;;;;;;;;;;;;;;21.93;75.09;98703.70;1685407;84;20437;-68
2022/08/21 05:01:24;;;;;;;;;;;;;;;21.95;74.83;98705.61;1685634;84;20119;-69
2022/08/21 05:03:52;;;;;;;;;;;;;;;21.99;74.73;98705.37;1685784;84;20127;-69
2022/08/21 05:06:18;;;;;;;;;;;;;;;22.00;74.60;98696.16;1684948;85;20488;-69
2022/08/21 05:08:46;;;;;;;;;;;;;;;22.05;74.74;98696.21;1684292;85;21782;-69
2022/08/21 05:11:13;;;;;;;;;;;;;;;22.12;74.38;98698.67;1685726;84;20147;-69
2022/08/21 05:13:41;;;;;;;;;;;;;;;22.16;74.41;98697.62;1685408;85;20112;-69
2022/08/21 05:16:07;;;;;;;;;;;;;;;22.20;74.17;98702.23;1685904;85;20508;-70
2022/08/21 05:18:34;;;;;;;;;;;;;;;22.21;73.88;98698.45;1685089;85;20462;-68
2022/08/21 05:21:00;;;;;;;;;;;;;;;22.25;73.93;98704.14;1685592;85;21954;-69
2022/08/21 05:23:27;;;;;;;;;;;;;;;22.34;73.79;98702.05;1684883;85;20433;-69
2022/08/21 05:25:53;;;;;;;;;;;;;;;22.43;73.43;98705.86;1686056;84;20132;-69
2022/08/21 05:28:19;;;;;;;;;;;;;;;22.53;73.15;98703.18;1695651;83;20121;-69
2022/08/21 05:30:46;;;;;;;;;;;;;;;22.59;72.78;98709.44;1678794;85;20141;-71
2022/08/21 05:33:12;;;;;;;;;;;;;;;22.59;72.42;98709.44;1684090;84;21153;-71
2022/08/21 05:35:39;;;;;;;;;;;;;;;22.58;72.44;98707.80;1685680;84;20146;-70
2022/08/21 05:38:05;;;;;;;;;;;;;;;22.61;72.28;98707.27;1686091;85;20116;-68
2022/08/21 05:40:32;;;;;;;;;;;;;;;22.62;72.05;98708.91;1685861;85;20670;-68
2022/08/21 05:42:58;;;;;;;;;;;;;;;22.59;72.10;98703.48;1684843;84;20480;-69
2022/08/21 05:45:27;;;;;;;;;;;;;;;22.59;72.15;98704.84;1685432;85;21147;-70
2022/08/21 05:47:53;;;;;;;;;;;;;;;22.62;72.05;98708.91;1685823;84;20119;-71
2022/08/21 05:50:19;;;;;;;;;;;;;;;22.61;72.02;98707.27;1686016;85;20466;-71
2022/08/21 05:52:46;;;;;;;;;;;;;;;22.63;71.82;98712.73;1684722;85;20172;-71
2022/08/21 05:55:12;;;;;;;;;;;;;;;22.67;71.77;98714.38;1686046;85;20088;-70
2022/08/21 05:57:41;;;;;;;;;;;;;;;22.68;71.61;98721.44;1685981;84;21173;-70
2022/08/21 06:00:13;;;;;;;;;;;;;;;22.71;71.62;98718.17;1685992;85;20151;-69
2022/08/21 06:02:40;;;;;;;;;;;;;;;22.75;71.58;98720.64;1684859;83;20147;-69
2022/08/21 06:05:07;;;;;;;;;;;;;;;22.82;71.51;98719.02;1685426;85;20088;-69
2022/08/21 06:07:34;;;;;;;;;;;;;;;22.89;71.26;98723.09;1686026;85;20111;-69
2022/08/21 06:10:00;;;;;;;;;;;;;;;22.96;71.02;98719.61;1686037;84;21152;-68
2022/08/21 06:12:27;;;;;;;;;;;;;;;23.02;70.67;98722.58;1685214;85;20124;-70
2022/08/21 06:14:53;;;;;;;;;;;;;;;23.08;70.62;98724.23;1685517;84;20128;-70
2022/08/21 06:17:19;;;;;;;;;;;;;;;23.19;70.31;98723.70;1685868;84;20491;-70
2022/08/21 06:19:50;;;;;;;;;;;;;;;23.27;69.89;98719.92;1686358;85;20148;-69
2022/08/21 06:22:16;;;;;;;;;;;;;;;23.32;69.33;98716.39;1685935;84;21206;-71
2022/08/21 06:24:43;;;;;;;;;;;;;;;23.38;69.12;98714.53;1684360;85;20123;-71
2022/08/21 06:27:09;;;;;;;;;;;;;;;23.46;69.00;98708.02;1685563;84;20146;-68
2022/08/21 06:29:36;;;;;;;;;;;;;;;23.52;68.71;98714.23;1685495;83;20100;-70
2022/08/21 06:32:03;;;;;;;;;;;;;;;23.59;68.40;98708.83;1685856;84;20088;-69
2022/08/21 06:34:30;;;;;;;;;;;;;;;23.70;68.08;98710.42;1684039;84;21785;-70
2022/08/21 06:36:56;;;;;;;;;;;;;;;23.82;67.95;98708.80;1686005;84;20433;-71
2022/08/21 06:39:22;;;;;;;;;;;;;;;23.92;67.50;98704.16;1685971;84;20454;-70
2022/08/21 06:41:49;;;;;;;;;;;;;;;23.98;67.37;98702.25;1685192;84;20595;-72
2022/08/21 06:44:16;;;;;;;;;;;;;;;24.10;66.97;98693.81;1684642;84;20430;-71
2022/08/21 06:46:42;;;;;;;;;;;;;;;24.21;66.76;98698.95;1667802;84;21065;-73
2022/08/21 06:49:08;;;;;;;;;;;;;;;24.35;66.38;98699.18;1685417;84;20127;-72
2022/08/21 06:51:35;;;;;;;;;;;;;;;24.43;65.98;98692.59;1704835;84;20089;-72
2022/08/21 06:54:01;;;;;;;;;;;;;;;24.43;65.91;98693.95;1708732;84;20170;-72
2022/08/21 06:56:28;;;;;;;;;;;;;;;24.45;65.89;98695.88;1712280;84;20553;-72
2022/08/21 06:58:54;;;;;;;;;;;;;;;24.58;65.54;98697.70;1686472;84;21249;-72
2022/08/21 07:01:22;;;;;;;;;;;;;;;24.68;65.14;98704.45;1683788;85;20083;-72
2022/08/21 07:03:49;;;;;;;;;;;;;;;24.71;64.75;98703.90;1685383;84;20127;-72
2022/08/21 07:06:16;;;;;;;;;;;;;;;24.66;64.84;98693.87;1685368;85;20128;-71
2022/08/21 07:08:43;;;;;;;;;;;;;;;24.62;64.69;98698.77;1685458;85;20139;-72
2022/08/21 07:11:20;;;;;;;;;;;;;;;24.56;64.46;98695.25;1685074;85;20217;-70
2022/08/21 07:13:48;;;;;;;;;;;;;;;24.46;64.40;98701.56;1685346;84;20482;-70
2022/08/21 07:16:14;;;;;;;;;;;;;;;24.39;64.93;98701.59;1685341;85;20456;-70
2022/08/21 07:18:41;;;;;;;;;;;;;;;24.42;65.00;98696.42;1685329;84;20132;-70
2022/08/21 07:21:07;;;;;;;;;;;;;;;24.51;65.12;98704.25;1685020;85;20091;-70
2022/08/21 07:23:37;;;;;;;;;;;;;;;24.53;64.72;98706.14;1685391;85;21156;-69
2022/08/21 07:26:03;;;;;;;;;;;;;;;24.48;64.40;98699.94;1685523;85;20448;-71
2022/08/21 07:28:30;;;;;;;;;;;;;;;24.45;64.66;98707.29;1686827;82;20173;-71
2022/08/21 07:30:58;;;;;;;;;;;;;;;24.39;65.06;98701.05;1692802;84;20099;-71
2022/08/21 07:33:25;;;;;;;;;;;;;;;24.37;64.75;98707.33;1695417;84;20087;-71
2022/08/21 07:35:52;;;;;;;;;;;;;;;24.34;65.03;98702.44;1695294;84;21242;-70
2022/08/21 07:38:18;;;;;;;;;;;;;;;24.39;65.15;98701.59;1695254;84;20143;-71
2022/08/21 07:40:46;;;;;;;;;;;;;;;24.45;65.29;98697.23;1694241;84;20152;-71
2022/08/21 07:43:12;;;;;;;;;;;;;;;24.54;65.27;98700.16;1675596;84;20103;-71
2022/08/21 07:45:38;;;;;;;;;;;;;;;24.62;64.67;98696.86;1695210;83;20159;-71
2022/08/21 07:48:05;;;;;;;;;;;;;;;24.67;64.51;98698.73;1695297;84;21154;-72
2022/08/21 07:50:31;;;;;;;;;;;;;;;24.80;64.34;98688.09;1694367;84;20174;-72
2022/08/21 07:52:57;;;;;;;;;;;;;;;24.91;63.99;98685.58;1694690;83;20103;-71
2022/08/21 07:55:24;;;;;;;;;;;;;;;24.98;63.94;98687.42;1696132;84;20627;-71
2022/08/21 07:57:50;;;;;;;;;;;;;;;25.03;63.75;98683.31;1681313;84;20153;-70
2022/08/21 08:00:19;;;;;;;;;;;;;;;25.16;63.60;98681.86;1689934;84;21144;-71
2022/08/21 08:02:49;;;;;;;;;;;;;;;25.30;62.53;98686.92;1695198;84;20150;-71
2022/08/21 08:05:15;;;;;;;;;;;;;;;25.28;61.92;98683.69;1695276;83;20212;-71
2022/08/21 08:07:42;;;;;;;;;;;;;;;25.25;61.82;98685.61;1695298;84;20122;-71
2022/08/21 08:10:10;;;;;;;;;;;;;;;25.25;62.02;98686.97;1695299;84;20207;-69
2022/08/21 08:12:38;;;;;;;;;;;;;;;25.24;61.98;98686.70;1695310;84;21197;-70
2022/08/21 08:15:06;;;;;;;;;;;;;;;25.24;62.27;98686.70;1695099;84;20152;-71
2022/08/21 08:17:33;;;;;;;;;;;;;;;25.26;62.46;98683.16;1694792;83;20153;-69
2022/08/21 08:20:02;;;;;;;;;;;;;;;25.35;62.25;98685.52;1695391;84;20203;-70
2022/08/21 08:22:29;;;;;;;;;;;;;;;25.40;62.11;98684.66;1693475;83;21130;-70
2022/08/21 08:24:56;;;;;;;;;;;;;;;25.47;62.08;98683.27;1704778;83;21128;-71
2022/08/21 08:27:23;;;;;;;;;;;;;;;25.50;62.10;98685.42;1701330;83;20091;-69
2022/08/21 08:29:49;;;;;;;;;;;;;;;25.46;62.08;98678.11;1694934;84;20159;-69
2022/08/21 08:32:16;;;;;;;;;;;;;;;25.41;62.26;98684.39;1694250;84;20130;-70
2022/08/21 08:34:43;;;;;;;;;;;;;;;25.48;62.30;98678.63;1695382;83;20099;-69
2022/08/21 08:37:09;;;;;;;;;;;;;;;25.58;62.19;98686.71;1694538;83;21275;-68
2022/08/21 08:39:36;;;;;;;;;;;;;;;25.59;61.84;98680.17;1695326;84;20095;-68
2022/08/21 08:42:06;;;;;;;;;;;;;;;25.56;61.60;98676.11;1694720;84;20088;-69
2022/08/21 08:44:33;;;;;;;;;;;;;;;25.56;61.60;98680.20;1694411;84;20092;-70
2022/08/21 08:46:59;;;;;;;;;;;;;;;25.61;61.38;98675.25;1695330;84;20151;-70
2022/08/21 08:49:37;;;;;;;;;;;;;;;25.70;60.95;98681.71;1694876;84;21163;-69
2022/08/21 08:52:17;;;;;;;;;;;;;;;25.77;60.70;98672.64;1694446;84;20127;-69
2022/08/21 08:54:45;;;;;;;;;;;;;;;25.94;60.48;98673.57;1694117;84;20501;-69
2022/08/21 08:57:17;;;;;;;;;;;;;;;26.08;59.34;98673.94;1688068;84;20173;-69
2022/08/21 08:59:51;;;;;;;;;;;;;;;26.23;58.95;98674.33;1684074;84;20441;-70
2022/08/21 09:02:15;;;;;;;;;;;;;;;26.38;58.66;98669.27;1693739;83;21263;-70
2022/08/21 09:04:43;;;;;;;;;;;;;;;26.51;58.26;98661.19;1695607;84;20444;-71
2022/08/21 09:07:16;;;;;;;;;;;;;;;26.65;57.44;98663.42;1695405;84;20190;-70
2022/08/21 09:09:48;;;;;;;;;;;;;;;26.78;57.19;98660.00;1695108;84;20831;-70
2022/08/21 09:12:24;;;;;;;;;;;;;;;26.94;56.62;98668.77;1692844;83;20148;-71
2022/08/21 09:15:04;;;;;;;;;;;;;;;26.95;55.69;98658.13;1695531;84;21174;-71
2022/08/21 09:17:43;;;;;;;;;;;;;;;26.98;56.04;98659.45;1695044;83;20436;-71
2022/08/21 09:20:35;;;;;;;;;;;;;;;27.06;56.05;98656.05;1687384;83;20139;-71
2022/08/21 09:23:14;;;;;;;;;;;;;;;27.23;55.98;98660.41;1707336;83;20149;-71
2022/08/21 09:26:08;;;;;;;;;;;;;;;27.31;55.52;98655.09;1727520;83;20446;-71
2022/08/21 09:28:38;;;;;;;;;;;;;;;27.45;55.14;98649.70;1690911;83;21915;-71
2022/08/21 09:31:28;;;;;;;;;;;;;;;27.71;54.89;98649.51;1721872;81;20117;-73
2022/08/21 09:34:07;;;;;;;;;;;;;;;27.95;53.83;98649.33;1727646;83;32373;-72
2022/08/21 09:36:43;;;;;;;;;;;;;;;28.04;52.92;98648.89;1722421;83;20120;-71
2022/08/21 09:39:11;;;;;;;;;;;;;;;28.16;52.27;98646.45;1709144;83;20190;-71
2022/08/21 09:41:38;;;;;;;;;;;;;;;28.26;51.66;98646.82;1722433;83;21160;-71
2022/08/21 09:44:05;;;;;;;;;;;;;;;28.26;51.24;98646.82;1727453;83;20073;-71
2022/08/21 09:46:32;;;;;;;;;;;;;;;28.12;51.26;98642.17;1719706;83;20134;-73
2022/08/21 09:49:01;;;;;;;;;;;;;;;27.96;51.51;98644.91;1722426;83;20186;-72
2022/08/21 09:51:34;;;;;;;;;;;;;;;27.94;51.69;98648.52;1707990;83;20493;-71
2022/08/21 09:54:11;;;;;;;;;;;;;;;27.89;51.35;98654.08;1688158;83;21363;-70
2022/08/21 09:59:30;;;;;;;;;;;;;;;27.77;52.17;98648.28;1681220;84;20164;-71
2022/08/21 10:01:57;;;;;;;;;;;;;;;27.78;51.70;98637.62;1693232;84;20249;-70
2022/08/21 10:04:35;;;;;;;;;;;;;;;27.86;51.74;98635.55;1694710;83;20143;-70
2022/08/21 10:07:12;;;;;;;;;;;;;;;27.90;51.78;98642.02;1708912;83;21095;-71
2022/08/21 10:09:39;;;;;;;;;;;;;;;27.96;51.78;98629.88;1695557;84;20127;-70
2022/08/21 10:12:19;;;;;;;;;;;;;;;28.00;51.88;98641.03;1695795;84;20088;-71
2022/08/21 10:15:11;;;;;;;;;;;;;;;27.95;51.88;98646.59;1695399;84;20091;-71
2022/08/21 10:17:56;;;;;;;;;;;;;;;27.81;51.88;98632.92;1672344;84;20104;-70
2022/08/21 10:20:29;;;;;;;;;;;;;;;27.78;52.08;98638.98;1695822;84;21158;-72
2022/08/21 10:23:07;;;;;;;;;;;;;;;27.81;52.40;98631.55;1695817;84;20080;-71
2022/08/21 10:25:52;;;;;;;;;;;;;;;27.96;52.54;98638.08;1694992;84;20107;-71
2022/08/21 10:28:25;;;;;;;;;;;;;;;27.99;51.63;98632.02;1673932;84;20186;-72
2022/08/21 10:31:04;;;;;;;;;;;;;;;27.96;51.75;98635.34;1695791;84;20453;-72
2022/08/21 10:33:49;;;;;;;;;;;;;;;27.99;51.44;98636.11;1695933;84;21764;-71
2022/08/21 10:36:30;;;;;;;;;;;;;;;27.91;50.50;98633.27;1695041;83;20079;-70
2022/08/21 10:39:06;;;;;;;;;;;;;;;27.78;50.59;98628.60;1695047;84;20087;-71
2022/08/21 10:41:39;;;;;;;;;;;;;;;27.83;50.81;98627.14;1676749;84;20116;-70
2022/08/21 10:44:22;;;;;;;;;;;;;;;27.94;51.03;98623.92;1695306;84;20115;-68
2022/08/21 10:46:58;;;;;;;;;;;;;;;28.07;50.94;98628.61;1678807;84;21187;-66
2022/08/21 10:49:45;;;;;;;;;;;;;;;28.00;50.11;98622.68;1688189;84;20088;-66
2022/08/21 10:52:27;;;;;;;;;;;;;;;28.01;50.67;98622.13;1695895;84;20099;-67
2022/08/21 10:55:16;;;;;;;;;;;;;;;28.01;50.21;98623.50;1694914;84;20096;-69
2022/08/21 10:57:53;;;;;;;;;;;;;;;27.90;50.36;98627.53;1682536;84;20101;-67
2022/08/21 11:00:21;;;;;;;;;;;;;;;27.84;51.26;98621.39;1691405;84;21241;-73
2022/08/21 11:03:06;;;;;;;;;;;;;;;27.89;51.54;98615.81;1695924;84;20512;-78
2022/08/21 11:05:36;;;;;;;;;;;;;;;27.94;51.57;98621.19;1693806;84;20099;-81
2022/08/21 11:08:06;;;;;;;;;;;;;;;28.06;50.12;98622.88;1692489;84;20127;-77
2022/08/21 11:10:47;;;;;;;;;;;;;;;28.09;49.63;98621.45;1695935;84;20116;-70
2022/08/21 11:13:30;;;;;;;;;;;;;;;28.13;49.58;98619.75;1695797;83;21191;-69
2022/08/21 11:16:12;;;;;;;;;;;;;;;28.23;50.10;98628.29;1692195;83;20076;-69
2022/08/21 11:18:45;;;;;;;;;;;;;;;28.25;49.96;98616.48;1692991;83;20091;-68
2022/08/21 11:21:44;;;;;;;;;;;;;;;28.12;50.39;98616.20;1692623;84;20119;-70
2022/08/21 11:24:31;;;;;;;;;;;;;;;28.14;49.95;98615.88;1694423;83;20401;-68
2022/08/21 11:27:07;;;;;;;;;;;;;;;28.14;49.83;98616.70;1695637;83;21092;-69
2022/08/21 11:29:38;;;;;;;;;;;;;;;28.05;49.60;98613.04;1695691;83;20103;-69
2022/08/21 11:32:14;;;;;;;;;;;;;;;28.09;50.13;98615.44;1685999;84;20099;-69
2022/08/21 11:35:19;;;;;;;;;;;;;;;28.21;50.27;98611.38;1627712;85;20104;-69
2022/08/21 11:37:59;;;;;;;;;;;;;;;28.34;49.45;98613.29;1681959;85;20104;-69
2022/08/21 11:40:58;;;;;;;;;;;;;;;28.35;48.60;98611.61;1693379;83;21154;-70
2022/08/21 11:43:40;;;;;;;;;;;;;;;28.25;48.80;98609.09;1646280;86;20097;-69
2022/08/21 11:46:16;;;;;;;;;;;;;;;28.20;49.17;98609.75;1687926;83;20108;-69
2022/08/21 11:49:02;;;;;;;;;;;;;;;28.21;49.83;98608.65;1661464;84;20115;-69
2022/08/21 11:51:47;;;;;;;;;;;;;;;28.24;50.69;98610.75;1692840;83;20123;-69
2022/08/21 11:54:29;;;;;;;;;;;;;;;28.25;50.75;98609.64;1682574;84;21239;-69
2022/08/21 11:57:19;;;;;;;;;;;;;;;28.21;50.99;98608.65;1680081;83;20082;-69
2022/08/21 11:59:55;;;;;;;;;;;;;;;28.21;51.06;98608.65;1635800;86;20078;-68
2022/08/21 12:02:24;;;;;;;;;;;;;;;28.13;51.48;98608.81;1672915;85;20110;-69
2022/08/21 12:04:53;;;;;;;;;;;;;;;28.18;51.60;98603.78;1699629;83;20660;-71
2022/08/21 12:07:42;;;;;;;;;;;;;;;28.26;51.55;98605.25;1718582;83;21160;-71
2022/08/21 12:10:11;;;;;;;;;;;;;;;28.24;51.00;98608.83;1692705;85;20156;-70
2022/08/21 12:12:39;;;;;;;;;;;;;;;28.12;51.09;98601.16;1711939;83;20434;-69
2022/08/21 12:15:16;;;;;;;;;;;;;;;28.09;51.36;98600.40;1698121;83;20188;-70
2022/08/21 12:18:02;;;;;;;;;;;;;;;28.14;51.73;98602.20;1691870;83;20139;-72
2022/08/21 12:20:47;;;;;;;;;;;;;;;28.09;51.63;98605.87;1683024;83;21178;-72
2022/08/21 12:23:17;;;;;;;;;;;;;;;28.03;51.97;98605.70;1674296;85;20185;-72
2022/08/21 12:25:50;;;;;;;;;;;;;;;28.15;51.51;98599.74;1722780;81;20141;-73
2022/08/21 12:28:19;;;;;;;;;;;;;;;28.24;50.65;98601.98;1690798;85;20651;-73
2022/08/21 12:30:46;;;;;;;;;;;;;;;28.35;49.87;98593.83;1724557;83;20481;-73
2022/08/21 12:33:28;;;;;;;;;;;;;;;28.48;50.08;98597.09;1697698;84;21211;-73
2022/08/21 12:36:07;;;;;;;;;;;;;;;28.55;49.84;98589.84;1728372;82;20113;-73
2022/08/21 12:38:44;;;;;;;;;;;;;;;28.54;49.59;98596.42;1697073;84;20140;-72
2022/08/21 12:41:14;;;;;;;;;;;;;;;28.54;49.82;98591.77;1727928;83;20153;-72
2022/08/21 12:43:43;;;;;;;;;;;;;;;28.60;50.00;98585.63;1697745;84;20107;-72
2022/08/21 12:46:21;;;;;;;;;;;;;;;28.61;50.15;98582.59;1728310;82;21222;-73
2022/08/21 12:48:52;;;;;;;;;;;;;;;28.56;50.09;98584.05;1691322;84;20128;-73
2022/08/21 12:51:28;;;;;;;;;;;;;;;28.57;49.60;98582.95;1685760;84;20090;-72
2022/08/21 12:53:56;;;;;;;;;;;;;;;28.65;49.41;98584.95;1720779;83;20085;-72
2022/08/21 12:56:24;;;;;;;;;;;;;;;28.77;49.55;98580.31;1697744;84;20128;-72
2022/08/21 12:58:56;;;;;;;;;;;;;;;28.78;49.82;98578.63;1680665;82;21138;-72
2022/08/21 13:01:30;;;;;;;;;;;;;;;28.80;49.08;98576.15;1698796;83;20134;-72
2022/08/21 13:03:58;;;;;;;;;;;;;;;28.75;49.06;98583.37;1698836;83;20123;-71
2022/08/21 13:06:26;;;;;;;;;;;;;;;28.75;49.24;98583.37;1698710;83;20099;-72